sensor_id;sensor_type;location;lat;lon;timestamp;P1;durP1;ratioP1;P2;durP2;ratioP2
61383;SDS011;63511;49.346;8.798;2022-11-20T00:00:45;23.45;;;12.82;;
61383;SDS011;63511;49.346;8.798;2022-11-20T00:03:11;23.15;;;13.65;;
61383;SDS011;63511;49.346;8.798;2022-11-20T00:05:37;22.13;;;13.60;;
61383;SDS011;63511;49.346;8.798;2022-11-20T00:08:02;21.95;;;13.32;;
61383;SDS011;63511;49.346;8.798;2022-11-20T00:10:27;22.45;;;13.93;;
61383;SDS011;63511;49.346;8.798;2022-11-20T00:12:53;21.80;;;12.45;;
61383;SDS011;63511;49.346;8.798;2022-11-20T00:15:18;19.33;;;13.35;;
61383;SDS011;63511;49.346;8.798;2022-11-20T00:17:43;23.05;;;14.30;;
61383;SDS011;63511;49.346;8.798;2022-11-20T00:20:09;19.02;;;12.68;;
61383;SDS011;63511;49.346;8.798;2022-11-20T00:22:35;21.40;;;13.60;;
61383;SDS011;63511;49.346;8.798;2022-11-20T00:25:00;19.17;;;12.43;;
61383;SDS011;63511;49.346;8.798;2022-11-20T00:27:25;24.05;;;14.38;;
61383;SDS011;63511;49.346;8.798;2022-11-20T00:29:53;26.27;;;14.00;;
61383;SDS011;63511;49.346;8.798;2022-11-20T00:32:18;22.67;;;13.65;;
61383;SDS011;63511;49.346;8.798;2022-11-20T00:34:46;21.15;;;12.10;;
61383;SDS011;63511;49.346;8.798;2022-11-20T00:37:11;18.08;;;11.48;;
61383;SDS011;63511;49.346;8.798;2022-11-20T00:39:39;20.30;;;12.40;;
61383;SDS011;63511;49.346;8.798;2022-11-20T00:42:07;24.30;;;13.82;;
61383;SDS011;63511;49.346;8.798;2022-11-20T00:44:34;22.27;;;13.45;;
61383;SDS011;63511;49.346;8.798;2022-11-20T00:47:00;18.92;;;12.00;;
61383;SDS011;63511;49.346;8.798;2022-11-20T00:49:25;20.25;;;12.65;;
61383;SDS011;63511;49.346;8.798;2022-11-20T00:51:50;21.95;;;12.88;;
61383;SDS011;63511;49.346;8.798;2022-11-20T00:54:16;22.35;;;14.00;;
61383;SDS011;63511;49.346;8.798;2022-11-20T00:56:41;23.67;;;14.70;;
61383;SDS011;63511;49.346;8.798;2022-11-20T00:59:08;23.55;;;13.48;;
61383;SDS011;63511;49.346;8.798;2022-11-20T01:01:34;19.33;;;13.00;;
61383;SDS011;63511;49.346;8.798;2022-11-20T01:04:01;19.95;;;11.52;;
61383;SDS011;63511;49.346;8.798;2022-11-20T01:06:28;24.85;;;13.65;;
61383;SDS011;63511;49.346;8.798;2022-11-20T01:09:06;21.65;;;12.65;;
61383;SDS011;63511;49.346;8.798;2022-11-20T01:11:38;24.25;;;13.75;;
61383;SDS011;63511;49.346;8.798;2022-11-20T01:14:05;22.60;;;12.90;;
61383;SDS011;63511;49.346;8.798;2022-11-20T01:16:35;20.42;;;12.02;;
61383;SDS011;63511;49.346;8.798;2022-11-20T01:19:05;20.67;;;12.98;;
61383;SDS011;63511;49.346;8.798;2022-11-20T01:21:37;22.23;;;14.05;;
61383;SDS011;63511;49.346;8.798;2022-11-20T01:24:04;20.10;;;12.35;;
61383;SDS011;63511;49.346;8.798;2022-11-20T01:26:31;19.42;;;11.57;;
61383;SDS011;63511;49.346;8.798;2022-11-20T01:28:57;19.02;;;12.05;;
61383;SDS011;63511;49.346;8.798;2022-11-20T01:31:28;21.17;;;13.02;;
61383;SDS011;63511;49.346;8.798;2022-11-20T01:33:58;23.08;;;14.02;;
61383;SDS011;63511;49.346;8.798;2022-11-20T01:36:26;22.17;;;12.60;;
61383;SDS011;63511;49.346;8.798;2022-11-20T01:38:54;20.23;;;12.68;;
61383;SDS011;63511;49.346;8.798;2022-11-20T01:41:21;25.65;;;14.38;;
61383;SDS011;63511;49.346;8.798;2022-11-20T01:44:05;21.08;;;12.65;;
61383;SDS011;63511;49.346;8.798;2022-11-20T01:46:32;24.70;;;14.48;;
61383;SDS011;63511;49.346;8.798;2022-11-20T01:54:06;17.27;;;10.27;;
61383;SDS011;63511;49.346;8.798;2022-11-20T01:56:38;24.02;;;14.18;;
61383;SDS011;63511;49.346;8.798;2022-11-20T01:59:07;23.13;;;14.02;;
61383;SDS011;63511;49.346;8.798;2022-11-20T02:01:35;21.00;;;13.55;;
61383;SDS011;63511;49.346;8.798;2022-11-20T02:04:04;20.42;;;13.02;;
61383;SDS011;63511;49.346;8.798;2022-11-20T02:06:30;22.40;;;13.25;;
61383;SDS011;63511;49.346;8.798;2022-11-20T02:11:25;24.20;;;13.30;;
61383;SDS011;63511;49.346;8.798;2022-11-20T02:13:53;22.60;;;12.90;;
61383;SDS011;63511;49.346;8.798;2022-11-20T02:18:50;21.52;;;12.93;;
61383;SDS011;63511;49.346;8.798;2022-11-20T02:24:16;23.17;;;14.30;;
61383;SDS011;63511;49.346;8.798;2022-11-20T02:29:37;22.42;;;12.70;;
61383;SDS011;63511;49.346;8.798;2022-11-20T02:32:27;31.73;;;14.33;;
61383;SDS011;63511;49.346;8.798;2022-11-20T02:34:53;28.00;;;14.32;;
61383;SDS011;63511;49.346;8.798;2022-11-20T02:37:18;23.67;;;13.50;;
61383;SDS011;63511;49.346;8.798;2022-11-20T02:39:45;24.17;;;14.35;;
61383;SDS011;63511;49.346;8.798;2022-11-20T02:42:12;21.17;;;12.82;;
61383;SDS011;63511;49.346;8.798;2022-11-20T02:44:39;25.58;;;14.50;;
61383;SDS011;63511;49.346;8.798;2022-11-20T02:47:05;24.08;;;13.32;;
61383;SDS011;63511;49.346;8.798;2022-11-20T02:49:30;23.70;;;13.20;;
61383;SDS011;63511;49.346;8.798;2022-11-20T02:51:55;23.08;;;13.93;;
61383;SDS011;63511;49.346;8.798;2022-11-20T02:54:24;22.45;;;13.15;;
61383;SDS011;63511;49.346;8.798;2022-11-20T02:56:50;26.38;;;14.25;;
61383;SDS011;63511;49.346;8.798;2022-11-20T02:59:20;24.02;;;13.23;;
61383;SDS011;63511;49.346;8.798;2022-11-20T03:01:45;27.40;;;15.45;;
61383;SDS011;63511;49.346;8.798;2022-11-20T03:04:13;29.58;;;15.23;;
61383;SDS011;63511;49.346;8.798;2022-11-20T03:06:38;34.58;;;15.77;;
61383;SDS011;63511;49.346;8.798;2022-11-20T03:09:03;27.50;;;15.00;;
61383;SDS011;63511;49.346;8.798;2022-11-20T03:11:29;32.67;;;16.45;;
61383;SDS011;63511;49.346;8.798;2022-11-20T03:13:54;30.17;;;17.50;;
61383;SDS011;63511;49.346;8.798;2022-11-20T03:16:20;32.90;;;17.75;;
61383;SDS011;63511;49.346;8.798;2022-11-20T03:18:48;29.02;;;15.20;;
61383;SDS011;63511;49.346;8.798;2022-11-20T03:21:14;29.02;;;14.95;;
61383;SDS011;63511;49.346;8.798;2022-11-20T03:23:40;37.80;;;17.15;;
61383;SDS011;63511;49.346;8.798;2022-11-20T03:26:10;30.88;;;16.30;;
61383;SDS011;63511;49.346;8.798;2022-11-20T03:28:39;33.78;;;16.35;;
61383;SDS011;63511;49.346;8.798;2022-11-20T03:31:09;33.22;;;15.27;;
61383;SDS011;63511;49.346;8.798;2022-11-20T03:33:37;28.00;;;14.65;;
61383;SDS011;63511;49.346;8.798;2022-11-20T03:36:08;28.33;;;15.70;;
61383;SDS011;63511;49.346;8.798;2022-11-20T03:38:38;31.38;;;16.80;;
61383;SDS011;63511;49.346;8.798;2022-11-20T03:41:05;33.35;;;16.65;;
61383;SDS011;63511;49.346;8.798;2022-11-20T03:43:35;37.70;;;17.40;;
61383;SDS011;63511;49.346;8.798;2022-11-20T03:46:04;31.30;;;15.63;;
61383;SDS011;63511;49.346;8.798;2022-11-20T03:48:30;29.40;;;16.02;;
61383;SDS011;63511;49.346;8.798;2022-11-20T03:53:38;32.25;;;16.63;;
61383;SDS011;63511;49.346;8.798;2022-11-20T03:56:06;32.38;;;14.88;;
61383;SDS011;63511;49.346;8.798;2022-11-20T03:58:33;29.70;;;15.50;;
61383;SDS011;63511;49.346;8.798;2022-11-20T04:01:08;30.20;;;15.15;;
61383;SDS011;63511;49.346;8.798;2022-11-20T04:06:03;28.10;;;14.75;;
61383;SDS011;63511;49.346;8.798;2022-11-20T04:08:34;25.80;;;15.35;;
61383;SDS011;63511;49.346;8.798;2022-11-20T04:11:10;30.50;;;15.75;;
61383;SDS011;63511;49.346;8.798;2022-11-20T04:13:45;32.05;;;17.00;;
61383;SDS011;63511;49.346;8.798;2022-11-20T04:22:58;29.52;;;15.25;;
61383;SDS011;63511;49.346;8.798;2022-11-20T04:25:25;29.50;;;15.05;;
61383;SDS011;63511;49.346;8.798;2022-11-20T04:27:51;29.95;;;15.60;;
61383;SDS011;63511;49.346;8.798;2022-11-20T04:30:16;26.05;;;14.02;;
61383;SDS011;63511;49.346;8.798;2022-11-20T04:32:41;32.53;;;16.23;;
61383;SDS011;63511;49.346;8.798;2022-11-20T04:35:09;30.60;;;16.25;;
61383;SDS011;63511;49.346;8.798;2022-11-20T04:37:36;27.73;;;14.48;;
61383;SDS011;63511;49.346;8.798;2022-11-20T04:40:04;27.80;;;14.65;;
61383;SDS011;63511;49.346;8.798;2022-11-20T04:42:32;26.27;;;14.48;;
61383;SDS011;63511;49.346;8.798;2022-11-20T04:44:58;28.35;;;15.07;;
61383;SDS011;63511;49.346;8.798;2022-11-20T04:47:23;23.88;;;12.88;;
61383;SDS011;63511;49.346;8.798;2022-11-20T04:49:49;23.85;;;12.73;;
61383;SDS011;63511;49.346;8.798;2022-11-20T04:52:14;31.50;;;15.63;;
61383;SDS011;63511;49.346;8.798;2022-11-20T04:54:42;36.83;;;17.10;;
61383;SDS011;63511;49.346;8.798;2022-11-20T04:57:07;30.80;;;15.40;;
61383;SDS011;63511;49.346;8.798;2022-11-20T04:59:32;38.97;;;17.15;;
61383;SDS011;63511;49.346;8.798;2022-11-20T05:02:02;51.22;;;17.42;;
61383;SDS011;63511;49.346;8.798;2022-11-20T05:04:27;77.85;;;20.63;;
61383;SDS011;63511;49.346;8.798;2022-11-20T05:06:53;67.57;;;18.92;;
61383;SDS011;63511;49.346;8.798;2022-11-20T05:09:18;51.13;;;17.25;;
61383;SDS011;63511;49.346;8.798;2022-11-20T05:11:45;56.60;;;17.40;;
61383;SDS011;63511;49.346;8.798;2022-11-20T05:14:11;44.65;;;15.05;;
61383;SDS011;63511;49.346;8.798;2022-11-20T05:16:38;47.40;;;15.25;;
61383;SDS011;63511;49.346;8.798;2022-11-20T05:19:06;39.75;;;12.75;;
61383;SDS011;63511;49.346;8.798;2022-11-20T05:21:31;32.05;;;14.75;;
61383;SDS011;63511;49.346;8.798;2022-11-20T05:23:57;37.72;;;16.10;;
61383;SDS011;63511;49.346;8.798;2022-11-20T05:26:22;44.38;;;17.60;;
61383;SDS011;63511;49.346;8.798;2022-11-20T05:28:50;38.72;;;15.57;;
61383;SDS011;63511;49.346;8.798;2022-11-20T05:31:17;29.65;;;14.38;;
61383;SDS011;63511;49.346;8.798;2022-11-20T05:33:44;33.58;;;15.40;;
61383;SDS011;63511;49.346;8.798;2022-11-20T05:36:11;23.85;;;13.48;;
61383;SDS011;63511;49.346;8.798;2022-11-20T05:38:38;32.70;;;16.02;;
61383;SDS011;63511;49.346;8.798;2022-11-20T05:41:07;26.92;;;13.82;;
61383;SDS011;63511;49.346;8.798;2022-11-20T05:43:36;25.48;;;13.88;;
61383;SDS011;63511;49.346;8.798;2022-11-20T05:46:03;26.83;;;13.33;;
61383;SDS011;63511;49.346;8.798;2022-11-20T05:48:30;31.25;;;14.73;;
61383;SDS011;63511;49.346;8.798;2022-11-20T05:50:59;29.25;;;14.50;;
61383;SDS011;63511;49.346;8.798;2022-11-20T05:53:26;38.17;;;14.90;;
61383;SDS011;63511;49.346;8.798;2022-11-20T05:55:59;35.45;;;15.55;;
61383;SDS011;63511;49.346;8.798;2022-11-20T05:58:33;31.45;;;14.85;;
61383;SDS011;63511;49.346;8.798;2022-11-20T06:01:15;31.80;;;15.13;;
61383;SDS011;63511;49.346;8.798;2022-11-20T06:03:42;28.35;;;15.00;;
61383;SDS011;63511;49.346;8.798;2022-11-20T06:06:12;33.20;;;15.32;;
61383;SDS011;63511;49.346;8.798;2022-11-20T06:08:38;28.48;;;14.27;;
61383;SDS011;63511;49.346;8.798;2022-11-20T06:11:04;34.45;;;14.40;;
61383;SDS011;63511;49.346;8.798;2022-11-20T06:13:34;24.20;;;13.85;;
61383;SDS011;63511;49.346;8.798;2022-11-20T06:16:02;29.33;;;14.48;;
61383;SDS011;63511;49.346;8.798;2022-11-20T06:18:30;25.10;;;14.23;;
61383;SDS011;63511;49.346;8.798;2022-11-20T06:21:09;24.30;;;13.77;;
61383;SDS011;63511;49.346;8.798;2022-11-20T06:23:36;21.25;;;13.88;;
61383;SDS011;63511;49.346;8.798;2022-11-20T06:26:05;28.70;;;15.02;;
61383;SDS011;63511;49.346;8.798;2022-11-20T06:28:32;27.17;;;14.98;;
61383;SDS011;63511;49.346;8.798;2022-11-20T06:30:58;30.55;;;15.30;;
61383;SDS011;63511;49.346;8.798;2022-11-20T06:33:24;30.90;;;14.80;;
61383;SDS011;63511;49.346;8.798;2022-11-20T06:35:57;30.98;;;14.57;;
61383;SDS011;63511;49.346;8.798;2022-11-20T06:38:25;23.17;;;14.07;;
61383;SDS011;63511;49.346;8.798;2022-11-20T06:40:51;26.25;;;14.40;;
61383;SDS011;63511;49.346;8.798;2022-11-20T06:43:17;26.02;;;12.77;;
61383;SDS011;63511;49.346;8.798;2022-11-20T06:45:42;26.38;;;12.93;;
61383;SDS011;63511;49.346;8.798;2022-11-20T06:48:07;16.42;;;10.88;;
61383;SDS011;63511;49.346;8.798;2022-11-20T06:50:36;23.55;;;12.18;;
61383;SDS011;63511;49.346;8.798;2022-11-20T06:53:02;25.38;;;12.45;;
61383;SDS011;63511;49.346;8.798;2022-11-20T06:55:28;20.08;;;12.07;;
61383;SDS011;63511;49.346;8.798;2022-11-20T06:57:54;21.88;;;12.63;;
61383;SDS011;63511;49.346;8.798;2022-11-20T07:00:19;26.15;;;13.15;;
61383;SDS011;63511;49.346;8.798;2022-11-20T07:02:45;24.80;;;13.18;;
61383;SDS011;63511;49.346;8.798;2022-11-20T07:05:10;24.05;;;12.43;;
61383;SDS011;63511;49.346;8.798;2022-11-20T07:07:35;21.58;;;11.77;;
61383;SDS011;63511;49.346;8.798;2022-11-20T07:10:01;22.67;;;12.13;;
61383;SDS011;63511;49.346;8.798;2022-11-20T07:12:26;22.83;;;12.63;;
61383;SDS011;63511;49.346;8.798;2022-11-20T07:14:51;27.02;;;12.40;;
61383;SDS011;63511;49.346;8.798;2022-11-20T07:17:16;22.20;;;10.82;;
61383;SDS011;63511;49.346;8.798;2022-11-20T07:19:42;20.08;;;11.40;;
61383;SDS011;63511;49.346;8.798;2022-11-20T07:22:08;19.50;;;10.68;;
61383;SDS011;63511;49.346;8.798;2022-11-20T07:24:33;21.25;;;11.10;;
61383;SDS011;63511;49.346;8.798;2022-11-20T07:26:59;24.55;;;11.60;;
61383;SDS011;63511;49.346;8.798;2022-11-20T07:29:24;17.90;;;10.30;;
61383;SDS011;63511;49.346;8.798;2022-11-20T07:31:49;19.17;;;11.10;;
61383;SDS011;63511;49.346;8.798;2022-11-20T07:34:14;23.73;;;10.80;;
61383;SDS011;63511;49.346;8.798;2022-11-20T07:36:40;17.20;;;10.23;;
61383;SDS011;63511;49.346;8.798;2022-11-20T07:39:07;12.82;;;9.35;;
61383;SDS011;63511;49.346;8.798;2022-11-20T07:41:33;17.85;;;11.15;;
61383;SDS011;63511;49.346;8.798;2022-11-20T07:43:58;13.50;;;9.32;;
61383;SDS011;63511;49.346;8.798;2022-11-20T07:46:23;15.45;;;9.77;;
61383;SDS011;63511;49.346;8.798;2022-11-20T07:48:49;17.58;;;10.10;;
61383;SDS011;63511;49.346;8.798;2022-11-20T07:51:14;14.57;;;9.68;;
61383;SDS011;63511;49.346;8.798;2022-11-20T07:53:39;12.73;;;8.63;;
61383;SDS011;63511;49.346;8.798;2022-11-20T07:56:05;13.40;;;8.23;;
61383;SDS011;63511;49.346;8.798;2022-11-20T07:58:33;12.30;;;8.90;;
61383;SDS011;63511;49.346;8.798;2022-11-20T08:01:03;13.05;;;8.18;;
61383;SDS011;63511;49.346;8.798;2022-11-20T08:03:32;14.80;;;8.02;;
61383;SDS011;63511;49.346;8.798;2022-11-20T08:06:00;12.02;;;7.72;;
61383;SDS011;63511;49.346;8.798;2022-11-20T08:08:29;11.77;;;7.28;;
61383;SDS011;63511;49.346;8.798;2022-11-20T08:10:56;11.60;;;8.18;;
61383;SDS011;63511;49.346;8.798;2022-11-20T08:13:42;9.98;;;7.20;;
61383;SDS011;63511;49.346;8.798;2022-11-20T08:16:29;17.02;;;6.95;;
61383;SDS011;63511;49.346;8.798;2022-11-20T08:18:57;13.07;;;7.47;;
61383;SDS011;63511;49.346;8.798;2022-11-20T08:21:22;15.75;;;6.90;;
61383;SDS011;63511;49.346;8.798;2022-11-20T08:23:47;11.80;;;6.97;;
61383;SDS011;63511;49.346;8.798;2022-11-20T08:26:13;11.38;;;6.50;;
61383;SDS011;63511;49.346;8.798;2022-11-20T08:28:38;12.48;;;7.15;;
61383;SDS011;63511;49.346;8.798;2022-11-20T08:31:03;10.30;;;6.45;;
61383;SDS011;63511;49.346;8.798;2022-11-20T08:33:35;7.82;;;5.65;;
61383;SDS011;63511;49.346;8.798;2022-11-20T08:36:00;12.05;;;6.32;;
61383;SDS011;63511;49.346;8.798;2022-11-20T08:38:29;10.90;;;6.22;;
61383;SDS011;63511;49.346;8.798;2022-11-20T08:40:56;12.75;;;7.78;;
61383;SDS011;63511;49.346;8.798;2022-11-20T08:43:43;8.95;;;6.47;;
61383;SDS011;63511;49.346;8.798;2022-11-20T08:46:09;9.55;;;6.32;;
61383;SDS011;63511;49.346;8.798;2022-11-20T08:48:36;9.38;;;5.53;;
61383;SDS011;63511;49.346;8.798;2022-11-20T08:51:02;9.85;;;6.47;;
61383;SDS011;63511;49.346;8.798;2022-11-20T08:53:27;15.40;;;7.32;;
61383;SDS011;63511;49.346;8.798;2022-11-20T08:55:52;8.38;;;5.10;;
61383;SDS011;63511;49.346;8.798;2022-11-20T08:58:18;7.40;;;5.13;;
61383;SDS011;63511;49.346;8.798;2022-11-20T09:00:43;9.18;;;5.95;;
61383;SDS011;63511;49.346;8.798;2022-11-20T09:03:08;7.60;;;5.85;;
61383;SDS011;63511;49.346;8.798;2022-11-20T09:05:38;12.63;;;5.90;;
61383;SDS011;63511;49.346;8.798;2022-11-20T09:08:06;8.68;;;5.35;;
61383;SDS011;63511;49.346;8.798;2022-11-20T09:10:31;7.07;;;5.60;;
61383;SDS011;63511;49.346;8.798;2022-11-20T09:12:57;10.70;;;6.07;;
61383;SDS011;63511;49.346;8.798;2022-11-20T09:15:23;9.32;;;5.10;;
61383;SDS011;63511;49.346;8.798;2022-11-20T09:17:51;18.58;;;16.15;;
61383;SDS011;63511;49.346;8.798;2022-11-20T09:20:19;10.23;;;7.60;;
61383;SDS011;63511;49.346;8.798;2022-11-20T09:22:45;8.70;;;6.45;;
61383;SDS011;63511;49.346;8.798;2022-11-20T09:25:12;19.33;;;10.07;;
61383;SDS011;63511;49.346;8.798;2022-11-20T09:27:38;35.88;;;18.95;;
61383;SDS011;63511;49.346;8.798;2022-11-20T09:30:04;26.30;;;12.75;;
61383;SDS011;63511;49.346;8.798;2022-11-20T09:32:29;29.40;;;15.90;;
61383;SDS011;63511;49.346;8.798;2022-11-20T09:34:55;24.77;;;15.07;;
61383;SDS011;63511;49.346;8.798;2022-11-20T09:37:22;19.70;;;8.55;;
61383;SDS011;63511;49.346;8.798;2022-11-20T09:39:48;10.60;;;7.22;;
61383;SDS011;63511;49.346;8.798;2022-11-20T09:47:12;15.98;;;8.20;;
61383;SDS011;63511;49.346;8.798;2022-11-20T09:50:11;11.23;;;6.80;;
61383;SDS011;63511;49.346;8.798;2022-11-20T09:55:49;9.98;;;6.13;;
61383;SDS011;63511;49.346;8.798;2022-11-20T10:00:46;7.68;;;5.38;;
61383;SDS011;63511;49.346;8.798;2022-11-20T10:03:14;7.38;;;5.97;;
61383;SDS011;63511;49.346;8.798;2022-11-20T10:05:48;8.80;;;5.93;;
61383;SDS011;63511;49.346;8.798;2022-11-20T10:08:19;10.65;;;5.97;;
61383;SDS011;63511;49.346;8.798;2022-11-20T10:16:33;8.02;;;5.78;;
61383;SDS011;63511;49.346;8.798;2022-11-20T10:21:51;8.07;;;5.97;;
61383;SDS011;63511;49.346;8.798;2022-11-20T10:24:41;8.75;;;5.13;;
61383;SDS011;63511;49.346;8.798;2022-11-20T10:30:13;10.68;;;5.38;;
61383;SDS011;63511;49.346;8.798;2022-11-20T10:32:45;6.30;;;5.07;;
61383;SDS011;63511;49.346;8.798;2022-11-20T10:37:59;5.65;;;5.05;;
61383;SDS011;63511;49.346;8.798;2022-11-20T10:43:16;13.88;;;8.77;;
61383;SDS011;63511;49.346;8.798;2022-11-20T10:48:30;9.77;;;7.13;;
61383;SDS011;63511;49.346;8.798;2022-11-20T10:54:08;7.82;;;5.68;;
61383;SDS011;63511;49.346;8.798;2022-11-20T11:01:56;6.97;;;3.75;;
61383;SDS011;63511;49.346;8.798;2022-11-20T11:04:39;4.50;;;3.55;;
61383;SDS011;63511;49.346;8.798;2022-11-20T11:07:10;7.25;;;3.42;;
61383;SDS011;63511;49.346;8.798;2022-11-20T11:09:46;6.38;;;2.92;;
61383;SDS011;63511;49.346;8.798;2022-11-20T11:12:14;6.10;;;2.72;;
61383;SDS011;63511;49.346;8.798;2022-11-20T11:14:43;4.70;;;3.05;;
61383;SDS011;63511;49.346;8.798;2022-11-20T11:17:21;6.32;;;2.95;;
61383;SDS011;63511;49.346;8.798;2022-11-20T11:20:35;7.97;;;3.57;;
61383;SDS011;63511;49.346;8.798;2022-11-20T11:30:44;9.55;;;4.18;;
61383;SDS011;63511;49.346;8.798;2022-11-20T11:33:11;6.15;;;4.10;;
61383;SDS011;63511;49.346;8.798;2022-11-20T11:35:53;6.57;;;3.75;;
61383;SDS011;63511;49.346;8.798;2022-11-20T11:41:06;9.77;;;4.50;;
61383;SDS011;63511;49.346;8.798;2022-11-20T11:43:38;7.00;;;3.85;;
61383;SDS011;63511;49.346;8.798;2022-11-20T11:46:33;7.50;;;3.55;;
61383;SDS011;63511;49.346;8.798;2022-11-20T11:51:29;3.90;;;3.05;;
61383;SDS011;63511;49.346;8.798;2022-11-20T11:53:59;4.32;;;3.17;;
61383;SDS011;63511;49.346;8.798;2022-11-20T11:56:32;5.75;;;3.40;;
61383;SDS011;63511;49.346;8.798;2022-11-20T11:58:59;5.70;;;3.63;;
61383;SDS011;63511;49.346;8.798;2022-11-20T12:01:32;5.63;;;3.38;;
61383;SDS011;63511;49.346;8.798;2022-11-20T12:04:17;7.78;;;3.28;;
61383;SDS011;63511;49.346;8.798;2022-11-20T12:07:06;4.03;;;3.08;;
61383;SDS011;63511;49.346;8.798;2022-11-20T12:09:39;6.55;;;3.35;;
61383;SDS011;63511;49.346;8.798;2022-11-20T12:12:17;8.50;;;3.05;;
61383;SDS011;63511;49.346;8.798;2022-11-20T12:14:46;7.07;;;3.43;;
61383;SDS011;63511;49.346;8.798;2022-11-20T12:17:15;7.13;;;2.88;;
61383;SDS011;63511;49.346;8.798;2022-11-20T12:19:40;10.23;;;2.90;;
61383;SDS011;63511;49.346;8.798;2022-11-20T12:30:29;6.65;;;2.28;;
61383;SDS011;63511;49.346;8.798;2022-11-20T12:33:04;5.03;;;1.92;;
61383;SDS011;63511;49.346;8.798;2022-11-20T12:41:25;6.18;;;2.15;;
61383;SDS011;63511;49.346;8.798;2022-11-20T13:02:05;8.40;;;1.70;;
61383;SDS011;63511;49.346;8.798;2022-11-20T13:07:28;4.45;;;1.70;;
61383;SDS011;63511;49.346;8.798;2022-11-20T13:09:55;11.13;;;1.80;;
61383;SDS011;63511;49.346;8.798;2022-11-20T13:18:01;2.60;;;1.70;;
61383;SDS011;63511;49.346;8.798;2022-11-20T13:20:35;7.93;;;1.83;;
61383;SDS011;63511;49.346;8.798;2022-11-20T13:25:37;6.32;;;1.75;;
61383;SDS011;63511;49.346;8.798;2022-11-20T13:28:26;5.50;;;1.98;;
61383;SDS011;63511;49.346;8.798;2022-11-20T13:30:54;10.15;;;1.92;;
61383;SDS011;63511;49.346;8.798;2022-11-20T13:33:38;5.38;;;1.83;;
61383;SDS011;63511;49.346;8.798;2022-11-20T13:36:05;7.00;;;1.92;;
61383;SDS011;63511;49.346;8.798;2022-11-20T13:38:48;6.53;;;2.53;;
61383;SDS011;63511;49.346;8.798;2022-11-20T13:41:26;5.28;;;2.20;;
61383;SDS011;63511;49.346;8.798;2022-11-20T13:44:20;8.32;;;1.75;;
61383;SDS011;63511;49.346;8.798;2022-11-20T13:46:53;5.57;;;1.63;;
61383;SDS011;63511;49.346;8.798;2022-11-20T13:49:32;7.10;;;1.50;;
61383;SDS011;63511;49.346;8.798;2022-11-20T13:58:07;8.60;;;2.03;;
61383;SDS011;63511;49.346;8.798;2022-11-20T14:01:16;5.63;;;1.40;;
61383;SDS011;63511;49.346;8.798;2022-11-20T14:03:46;3.63;;;1.65;;
61383;SDS011;63511;49.346;8.798;2022-11-20T14:08:46;2.13;;;1.45;;
61383;SDS011;63511;49.346;8.798;2022-11-20T14:11:18;5.20;;;1.55;;
61383;SDS011;63511;49.346;8.798;2022-11-20T14:13:57;8.90;;;2.17;;
61383;SDS011;63511;49.346;8.798;2022-11-20T14:16:28;4.68;;;1.60;;
61383;SDS011;63511;49.346;8.798;2022-11-20T14:19:00;6.37;;;1.50;;
61383;SDS011;63511;49.346;8.798;2022-11-20T14:21:44;8.75;;;2.00;;
61383;SDS011;63511;49.346;8.798;2022-11-20T14:24:14;10.18;;;2.78;;
61383;SDS011;63511;49.346;8.798;2022-11-20T14:26:44;8.87;;;3.10;;
61383;SDS011;63511;49.346;8.798;2022-11-20T14:29:17;7.50;;;2.42;;
61383;SDS011;63511;49.346;8.798;2022-11-20T14:31:47;6.97;;;1.73;;
61383;SDS011;63511;49.346;8.798;2022-11-20T14:34:25;3.85;;;1.67;;
61383;SDS011;63511;49.346;8.798;2022-11-20T14:37:02;2.55;;;1.35;;
61383;SDS011;63511;49.346;8.798;2022-11-20T14:39:33;3.03;;;1.52;;
61383;SDS011;63511;49.346;8.798;2022-11-20T14:42:01;3.05;;;2.40;;
61383;SDS011;63511;49.346;8.798;2022-11-20T14:44:33;5.50;;;2.22;;
61383;SDS011;63511;49.346;8.798;2022-11-20T14:47:02;4.68;;;2.55;;
61383;SDS011;63511;49.346;8.798;2022-11-20T14:49:29;9.00;;;2.65;;
61383;SDS011;63511;49.346;8.798;2022-11-20T14:52:00;6.20;;;2.08;;
61383;SDS011;63511;49.346;8.798;2022-11-20T14:54:26;3.53;;;1.80;;
61383;SDS011;63511;49.346;8.798;2022-11-20T14:56:57;4.65;;;1.75;;
61383;SDS011;63511;49.346;8.798;2022-11-20T14:59:31;3.40;;;1.75;;
61383;SDS011;63511;49.346;8.798;2022-11-20T15:01:59;9.63;;;2.33;;
61383;SDS011;63511;49.346;8.798;2022-11-20T15:04:26;6.85;;;2.00;;
61383;SDS011;63511;49.346;8.798;2022-11-20T15:06:53;9.15;;;1.77;;
61383;SDS011;63511;49.346;8.798;2022-11-20T15:09:20;4.88;;;1.65;;
61383;SDS011;63511;49.346;8.798;2022-11-20T15:14:49;6.78;;;2.60;;
61383;SDS011;63511;49.346;8.798;2022-11-20T15:17:17;7.20;;;1.90;;
61383;SDS011;63511;49.346;8.798;2022-11-20T15:19:42;4.50;;;1.45;;
61383;SDS011;63511;49.346;8.798;2022-11-20T15:22:09;3.58;;;1.58;;
61383;SDS011;63511;49.346;8.798;2022-11-20T15:24:41;7.13;;;1.60;;
61383;SDS011;63511;49.346;8.798;2022-11-20T15:27:09;5.50;;;1.55;;
61383;SDS011;63511;49.346;8.798;2022-11-20T15:29:37;5.80;;;1.85;;
61383;SDS011;63511;49.346;8.798;2022-11-20T15:32:05;4.72;;;1.67;;
61383;SDS011;63511;49.346;8.798;2022-11-20T15:34:32;6.85;;;2.00;;
61383;SDS011;63511;49.346;8.798;2022-11-20T15:37:00;8.00;;;2.22;;
61383;SDS011;63511;49.346;8.798;2022-11-20T15:39:25;5.88;;;1.88;;
61383;SDS011;63511;49.346;8.798;2022-11-20T15:41:53;5.57;;;2.03;;
61383;SDS011;63511;49.346;8.798;2022-11-20T15:44:20;3.38;;;1.73;;
61383;SDS011;63511;49.346;8.798;2022-11-20T15:46:45;7.55;;;1.90;;
61383;SDS011;63511;49.346;8.798;2022-11-20T15:49:15;6.70;;;3.10;;
61383;SDS011;63511;49.346;8.798;2022-11-20T15:51:48;9.15;;;2.83;;
61383;SDS011;63511;49.346;8.798;2022-11-20T15:54:23;6.40;;;2.95;;
61383;SDS011;63511;49.346;8.798;2022-11-20T15:56:51;13.13;;;5.32;;
61383;SDS011;63511;49.346;8.798;2022-11-20T15:59:17;24.48;;;9.38;;
61383;SDS011;63511;49.346;8.798;2022-11-20T16:01:43;16.13;;;5.38;;
61383;SDS011;63511;49.346;8.798;2022-11-20T16:04:09;9.55;;;4.95;;
61383;SDS011;63511;49.346;8.798;2022-11-20T16:06:37;7.60;;;4.03;;
61383;SDS011;63511;49.346;8.798;2022-11-20T16:09:02;13.20;;;5.18;;
61383;SDS011;63511;49.346;8.798;2022-11-20T16:11:30;7.93;;;3.42;;
61383;SDS011;63511;49.346;8.798;2022-11-20T16:13:57;13.10;;;3.65;;
61383;SDS011;63511;49.346;8.798;2022-11-20T16:16:41;12.30;;;3.20;;
61383;SDS011;63511;49.346;8.798;2022-11-20T16:19:12;9.88;;;3.00;;
61383;SDS011;63511;49.346;8.798;2022-11-20T16:21:40;5.80;;;2.72;;
61383;SDS011;63511;49.346;8.798;2022-11-20T16:24:10;6.50;;;3.22;;
61383;SDS011;63511;49.346;8.798;2022-11-20T16:26:38;7.93;;;2.90;;
61383;SDS011;63511;49.346;8.798;2022-11-20T16:29:06;6.40;;;2.47;;
61383;SDS011;63511;49.346;8.798;2022-11-20T16:31:37;10.15;;;2.47;;
61383;SDS011;63511;49.346;8.798;2022-11-20T16:34:03;7.20;;;2.42;;
61383;SDS011;63511;49.346;8.798;2022-11-20T16:36:31;6.28;;;1.77;;
61383;SDS011;63511;49.346;8.798;2022-11-20T16:39:01;5.68;;;2.30;;
61383;SDS011;63511;49.346;8.798;2022-11-20T16:41:29;7.10;;;2.65;;
61383;SDS011;63511;49.346;8.798;2022-11-20T16:43:56;13.20;;;2.97;;
61383;SDS011;63511;49.346;8.798;2022-11-20T16:46:25;9.48;;;2.13;;
61383;SDS011;63511;49.346;8.798;2022-11-20T16:51:53;4.63;;;2.30;;
61383;SDS011;63511;49.346;8.798;2022-11-20T16:54:19;6.18;;;1.83;;
61383;SDS011;63511;49.346;8.798;2022-11-20T16:56:44;5.05;;;2.03;;
61383;SDS011;63511;49.346;8.798;2022-11-20T16:59:12;9.63;;;2.15;;
61383;SDS011;63511;49.346;8.798;2022-11-20T17:01:40;4.75;;;1.90;;